KHPT/HPT METAR and TAF weather

Enter ICAO airport designator
Station Type Date Time Source
KHPT METAR 2019/11/18 11:35 UTC NOAA

KHPT 181135Z AUTO 00000KT 10SM OVC010 00/00 A2980 RMK AO2


Station Type Date Time Source
KHPT Decoded METAR 2019/11/18 11:35 UTC NOAA

Station name not available
Nov 18, 2019 - 06:35 AM EST / 2019.11.18 1135 UTC
Wind: Calm:0
Visibility: 10 mile(s):0
Sky conditions: overcast
Temperature: 32 F (0 C)
Dew Point: 32 F (0 C)
Relative Humidity: 100%
Pressure (altimeter): 29.8 in. Hg (1009 hPa)
ob: KHPT 181135Z AUTO 00000KT 10SM OVC010 00/00 A2980 RMK AO2
cycle: 11

Station Type Date Time Source
KHPT TAF UTC NOAA

Error!

Example: see airport list